sensor_id;sensor_type;location;lat;lon;timestamp;P1;durP1;ratioP1;P2;durP2;ratioP2
15841;SDS011;8021;48.022;11.812;2023-04-01T00:00:08;0.40;;;0.40;;
15841;SDS011;8021;48.022;11.812;2023-04-01T00:02:39;0.35;;;0.35;;
15841;SDS011;8021;48.022;11.812;2023-04-01T00:05:08;0.40;;;0.40;;
15841;SDS011;8021;48.022;11.812;2023-04-01T00:07:38;0.40;;;0.40;;
15841;SDS011;8021;48.022;11.812;2023-04-01T00:10:06;0.40;;;0.40;;
15841;SDS011;8021;48.022;11.812;2023-04-01T00:12:33;0.40;;;0.40;;
15841;SDS011;8021;48.022;11.812;2023-04-01T00:15:01;0.40;;;0.40;;
15841;SDS011;8021;48.022;11.812;2023-04-01T00:17:30;0.38;;;0.38;;
15841;SDS011;8021;48.022;11.812;2023-04-01T00:19:58;0.40;;;0.40;;
15841;SDS011;8021;48.022;11.812;2023-04-01T00:22:25;0.40;;;0.40;;
15841;SDS011;8021;48.022;11.812;2023-04-01T00:24:53;0.30;;;0.30;;
15841;SDS011;8021;48.022;11.812;2023-04-01T00:27:21;0.30;;;0.30;;
15841;SDS011;8021;48.022;11.812;2023-04-01T00:29:48;0.30;;;0.30;;
15841;SDS011;8021;48.022;11.812;2023-04-01T00:32:16;0.38;;;0.38;;
15841;SDS011;8021;48.022;11.812;2023-04-01T00:34:44;0.30;;;0.30;;
15841;SDS011;8021;48.022;11.812;2023-04-01T00:37:12;0.43;;;0.43;;
15841;SDS011;8021;48.022;11.812;2023-04-01T00:39:39;0.30;;;0.30;;
15841;SDS011;8021;48.022;11.812;2023-04-01T00:42:08;0.30;;;0.30;;
15841;SDS011;8021;48.022;11.812;2023-04-01T00:44:37;0.30;;;0.30;;
15841;SDS011;8021;48.022;11.812;2023-04-01T00:47:05;0.30;;;0.30;;
15841;SDS011;8021;48.022;11.812;2023-04-01T00:49:33;0.40;;;0.40;;
15841;SDS011;8021;48.022;11.812;2023-04-01T00:52:03;0.40;;;0.40;;
15841;SDS011;8021;48.022;11.812;2023-04-01T00:54:31;0.35;;;0.35;;
15841;SDS011;8021;48.022;11.812;2023-04-01T00:56:59;0.40;;;0.40;;
15841;SDS011;8021;48.022;11.812;2023-04-01T00:59:28;0.50;;;0.50;;
15841;SDS011;8021;48.022;11.812;2023-04-01T01:01:57;0.40;;;0.40;;
15841;SDS011;8021;48.022;11.812;2023-04-01T01:04:25;0.40;;;0.40;;
15841;SDS011;8021;48.022;11.812;2023-04-01T01:06:56;0.40;;;0.40;;
15841;SDS011;8021;48.022;11.812;2023-04-01T01:09:31;0.50;;;0.50;;
15841;SDS011;8021;48.022;11.812;2023-04-01T01:12:03;0.30;;;0.30;;
15841;SDS011;8021;48.022;11.812;2023-04-01T01:14:36;0.30;;;0.30;;
15841;SDS011;8021;48.022;11.812;2023-04-01T01:17:06;0.30;;;0.30;;
15841;SDS011;8021;48.022;11.812;2023-04-01T01:19:43;0.38;;;0.38;;
15841;SDS011;8021;48.022;11.812;2023-04-01T01:22:30;0.40;;;0.40;;
15841;SDS011;8021;48.022;11.812;2023-04-01T01:25:19;0.30;;;0.30;;
15841;SDS011;8021;48.022;11.812;2023-04-01T01:27:54;0.30;;;0.30;;
15841;SDS011;8021;48.022;11.812;2023-04-01T01:30:27;0.40;;;0.40;;
15841;SDS011;8021;48.022;11.812;2023-04-01T01:33:06;0.30;;;0.30;;
15841;SDS011;8021;48.022;11.812;2023-04-01T01:35:38;0.40;;;0.40;;
15841;SDS011;8021;48.022;11.812;2023-04-01T01:38:14;0.32;;;0.32;;
15841;SDS011;8021;48.022;11.812;2023-04-01T01:40:48;0.25;;;0.25;;
15841;SDS011;8021;48.022;11.812;2023-04-01T01:43:19;0.30;;;0.30;;
15841;SDS011;8021;48.022;11.812;2023-04-01T01:45:48;0.32;;;0.32;;
15841;SDS011;8021;48.022;11.812;2023-04-01T01:48:16;0.40;;;0.40;;
15841;SDS011;8021;48.022;11.812;2023-04-01T01:50:45;0.38;;;0.38;;
15841;SDS011;8021;48.022;11.812;2023-04-01T01:53:14;0.32;;;0.32;;
15841;SDS011;8021;48.022;11.812;2023-04-01T01:55:43;0.30;;;0.30;;
15841;SDS011;8021;48.022;11.812;2023-04-01T01:58:13;0.40;;;0.40;;
15841;SDS011;8021;48.022;11.812;2023-04-01T02:00:41;0.40;;;0.40;;
15841;SDS011;8021;48.022;11.812;2023-04-01T02:03:11;0.30;;;0.30;;
15841;SDS011;8021;48.022;11.812;2023-04-01T02:05:40;0.30;;;0.30;;
15841;SDS011;8021;48.022;11.812;2023-04-01T02:08:10;0.45;;;0.45;;
15841;SDS011;8021;48.022;11.812;2023-04-01T02:10:40;0.30;;;0.30;;
15841;SDS011;8021;48.022;11.812;2023-04-01T02:13:12;0.40;;;0.40;;
15841;SDS011;8021;48.022;11.812;2023-04-01T02:15:42;0.40;;;0.40;;
15841;SDS011;8021;48.022;11.812;2023-04-01T02:18:12;0.30;;;0.30;;
15841;SDS011;8021;48.022;11.812;2023-04-01T02:20:40;0.50;;;0.50;;
15841;SDS011;8021;48.022;11.812;2023-04-01T02:23:09;0.40;;;0.40;;
15841;SDS011;8021;48.022;11.812;2023-04-01T02:25:39;0.32;;;0.32;;
15841;SDS011;8021;48.022;11.812;2023-04-01T02:28:07;0.35;;;0.35;;
15841;SDS011;8021;48.022;11.812;2023-04-01T02:30:36;0.30;;;0.30;;
15841;SDS011;8021;48.022;11.812;2023-04-01T02:33:06;0.40;;;0.40;;
15841;SDS011;8021;48.022;11.812;2023-04-01T02:35:34;0.45;;;0.45;;
15841;SDS011;8021;48.022;11.812;2023-04-01T02:38:02;0.40;;;0.40;;
15841;SDS011;8021;48.022;11.812;2023-04-01T02:40:40;0.43;;;0.43;;
15841;SDS011;8021;48.022;11.812;2023-04-01T02:43:08;0.40;;;0.40;;
15841;SDS011;8021;48.022;11.812;2023-04-01T02:45:36;0.40;;;0.40;;
15841;SDS011;8021;48.022;11.812;2023-04-01T02:48:04;0.30;;;0.30;;
15841;SDS011;8021;48.022;11.812;2023-04-01T02:50:32;0.30;;;0.30;;
15841;SDS011;8021;48.022;11.812;2023-04-01T02:53:00;0.30;;;0.30;;
15841;SDS011;8021;48.022;11.812;2023-04-01T02:55:29;0.45;;;0.45;;
15841;SDS011;8021;48.022;11.812;2023-04-01T02:57:57;0.30;;;0.30;;
15841;SDS011;8021;48.022;11.812;2023-04-01T03:00:28;0.30;;;0.30;;
15841;SDS011;8021;48.022;11.812;2023-04-01T03:02:56;0.40;;;0.40;;
15841;SDS011;8021;48.022;11.812;2023-04-01T03:05:24;0.30;;;0.30;;
15841;SDS011;8021;48.022;11.812;2023-04-01T03:07:51;0.40;;;0.40;;
15841;SDS011;8021;48.022;11.812;2023-04-01T03:10:19;0.30;;;0.30;;
15841;SDS011;8021;48.022;11.812;2023-04-01T03:12:46;0.38;;;0.38;;
15841;SDS011;8021;48.022;11.812;2023-04-01T03:15:14;0.30;;;0.30;;
15841;SDS011;8021;48.022;11.812;2023-04-01T03:17:43;0.30;;;0.30;;
15841;SDS011;8021;48.022;11.812;2023-04-01T03:20:13;0.30;;;0.30;;
15841;SDS011;8021;48.022;11.812;2023-04-01T03:22:41;0.35;;;0.35;;
15841;SDS011;8021;48.022;11.812;2023-04-01T03:25:08;0.30;;;0.30;;
15841;SDS011;8021;48.022;11.812;2023-04-01T03:27:37;0.45;;;0.45;;
15841;SDS011;8021;48.022;11.812;2023-04-01T03:30:07;0.40;;;0.40;;
15841;SDS011;8021;48.022;11.812;2023-04-01T03:32:44;0.32;;;0.32;;
15841;SDS011;8021;48.022;11.812;2023-04-01T03:35:12;0.40;;;0.40;;
15841;SDS011;8021;48.022;11.812;2023-04-01T03:37:40;0.40;;;0.40;;
15841;SDS011;8021;48.022;11.812;2023-04-01T03:40:08;0.40;;;0.40;;
15841;SDS011;8021;48.022;11.812;2023-04-01T03:42:35;0.30;;;0.30;;
15841;SDS011;8021;48.022;11.812;2023-04-01T03:45:04;0.40;;;0.40;;
15841;SDS011;8021;48.022;11.812;2023-04-01T03:47:31;0.30;;;0.30;;
15841;SDS011;8021;48.022;11.812;2023-04-01T03:50:00;0.50;;;0.50;;
15841;SDS011;8021;48.022;11.812;2023-04-01T03:52:28;0.30;;;0.30;;
15841;SDS011;8021;48.022;11.812;2023-04-01T03:54:55;0.38;;;0.38;;
15841;SDS011;8021;48.022;11.812;2023-04-01T03:57:23;0.40;;;0.40;;
15841;SDS011;8021;48.022;11.812;2023-04-01T03:59:51;0.43;;;0.43;;
15841;SDS011;8021;48.022;11.812;2023-04-01T04:02:19;0.50;;;0.50;;
15841;SDS011;8021;48.022;11.812;2023-04-01T04:04:47;0.40;;;0.40;;
15841;SDS011;8021;48.022;11.812;2023-04-01T04:07:16;0.30;;;0.30;;
15841;SDS011;8021;48.022;11.812;2023-04-01T04:09:59;0.30;;;0.30;;
15841;SDS011;8021;48.022;11.812;2023-04-01T04:12:26;0.60;;;0.60;;
15841;SDS011;8021;48.022;11.812;2023-04-01T04:14:54;0.50;;;0.50;;
15841;SDS011;8021;48.022;11.812;2023-04-01T04:17:21;0.38;;;0.38;;
15841;SDS011;8021;48.022;11.812;2023-04-01T04:19:49;0.40;;;0.40;;
15841;SDS011;8021;48.022;11.812;2023-04-01T04:22:18;0.40;;;0.40;;
15841;SDS011;8021;48.022;11.812;2023-04-01T04:24:46;0.30;;;0.30;;
15841;SDS011;8021;48.022;11.812;2023-04-01T04:27:14;0.40;;;0.40;;
15841;SDS011;8021;48.022;11.812;2023-04-01T04:29:51;0.40;;;0.40;;
15841;SDS011;8021;48.022;11.812;2023-04-01T04:32:19;0.30;;;0.30;;
15841;SDS011;8021;48.022;11.812;2023-04-01T04:34:46;0.40;;;0.40;;
15841;SDS011;8021;48.022;11.812;2023-04-01T04:37:14;0.30;;;0.30;;
15841;SDS011;8021;48.022;11.812;2023-04-01T04:39:43;0.40;;;0.40;;
15841;SDS011;8021;48.022;11.812;2023-04-01T04:42:10;0.30;;;0.30;;
15841;SDS011;8021;48.022;11.812;2023-04-01T04:44:38;0.32;;;0.32;;
15841;SDS011;8021;48.022;11.812;2023-04-01T04:47:06;0.50;;;0.50;;
15841;SDS011;8021;48.022;11.812;2023-04-01T04:49:35;0.35;;;0.35;;
15841;SDS011;8021;48.022;11.812;2023-04-01T04:52:06;0.45;;;0.45;;
15841;SDS011;8021;48.022;11.812;2023-04-01T04:54:34;0.35;;;0.35;;
15841;SDS011;8021;48.022;11.812;2023-04-01T04:57:04;0.40;;;0.40;;
15841;SDS011;8021;48.022;11.812;2023-04-01T04:59:39;0.40;;;0.40;;
15841;SDS011;8021;48.022;11.812;2023-04-01T05:02:11;0.32;;;0.32;;
15841;SDS011;8021;48.022;11.812;2023-04-01T05:04:38;0.40;;;0.40;;
15841;SDS011;8021;48.022;11.812;2023-04-01T05:07:08;0.30;;;0.30;;
15841;SDS011;8021;48.022;11.812;2023-04-01T05:09:36;0.30;;;0.30;;
15841;SDS011;8021;48.022;11.812;2023-04-01T05:12:05;0.38;;;0.38;;
15841;SDS011;8021;48.022;11.812;2023-04-01T05:14:54;0.40;;;0.40;;
15841;SDS011;8021;48.022;11.812;2023-04-01T05:17:21;0.40;;;0.40;;
15841;SDS011;8021;48.022;11.812;2023-04-01T05:19:49;0.40;;;0.40;;
15841;SDS011;8021;48.022;11.812;2023-04-01T05:22:16;0.40;;;0.40;;
15841;SDS011;8021;48.022;11.812;2023-04-01T05:24:44;0.30;;;0.30;;
15841;SDS011;8021;48.022;11.812;2023-04-01T05:27:13;0.40;;;0.40;;
15841;SDS011;8021;48.022;11.812;2023-04-01T05:29:41;0.32;;;0.32;;
15841;SDS011;8021;48.022;11.812;2023-04-01T05:32:25;0.50;;;0.50;;
15841;SDS011;8021;48.022;11.812;2023-04-01T05:34:53;0.40;;;0.40;;
15841;SDS011;8021;48.022;11.812;2023-04-01T05:37:21;0.50;;;0.50;;
15841;SDS011;8021;48.022;11.812;2023-04-01T05:39:49;0.40;;;0.40;;
15841;SDS011;8021;48.022;11.812;2023-04-01T05:42:17;0.50;;;0.50;;
15841;SDS011;8021;48.022;11.812;2023-04-01T05:44:45;0.40;;;0.40;;
15841;SDS011;8021;48.022;11.812;2023-04-01T05:47:38;0.40;;;0.40;;
15841;SDS011;8021;48.022;11.812;2023-04-01T05:50:06;0.30;;;0.30;;
15841;SDS011;8021;48.022;11.812;2023-04-01T05:52:34;0.40;;;0.40;;
15841;SDS011;8021;48.022;11.812;2023-04-01T05:55:01;0.30;;;0.30;;
15841;SDS011;8021;48.022;11.812;2023-04-01T05:57:31;0.40;;;0.40;;
15841;SDS011;8021;48.022;11.812;2023-04-01T05:59:59;0.38;;;0.38;;
15841;SDS011;8021;48.022;11.812;2023-04-01T06:02:26;0.30;;;0.20;;
15841;SDS011;8021;48.022;11.812;2023-04-01T06:04:58;0.30;;;0.20;;
15841;SDS011;8021;48.022;11.812;2023-04-01T06:07:26;0.30;;;0.20;;
15841;SDS011;8021;48.022;11.812;2023-04-01T06:09:55;0.25;;;0.20;;
15841;SDS011;8021;48.022;11.812;2023-04-01T06:12:26;0.20;;;0.20;;
15841;SDS011;8021;48.022;11.812;2023-04-01T06:15:03;0.20;;;0.20;;
15841;SDS011;8021;48.022;11.812;2023-04-01T06:17:37;0.15;;;0.10;;
15841;SDS011;8021;48.022;11.812;2023-04-01T06:20:11;0.20;;;0.17;;
15841;SDS011;8021;48.022;11.812;2023-04-01T06:22:52;0.17;;;0.10;;
15841;SDS011;8021;48.022;11.812;2023-04-01T06:25:32;0.20;;;0.20;;
15841;SDS011;8021;48.022;11.812;2023-04-01T06:30:49;0.20;;;0.20;;
15841;SDS011;8021;48.022;11.812;2023-04-01T06:33:32;0.20;;;0.20;;
15841;SDS011;8021;48.022;11.812;2023-04-01T06:36:15;0.20;;;0.20;;
15841;SDS011;8021;48.022;11.812;2023-04-01T06:38:48;0.20;;;0.20;;
15841;SDS011;8021;48.022;11.812;2023-04-01T06:41:35;0.20;;;0.15;;
15841;SDS011;8021;48.022;11.812;2023-04-01T06:44:10;0.20;;;0.20;;
15841;SDS011;8021;48.022;11.812;2023-04-01T06:47:04;0.28;;;0.28;;
15841;SDS011;8021;48.022;11.812;2023-04-01T06:50:05;0.20;;;0.20;;
15841;SDS011;8021;48.022;11.812;2023-04-01T06:52:55;0.20;;;0.13;;
15841;SDS011;8021;48.022;11.812;2023-04-01T06:55:51;0.20;;;0.20;;
15841;SDS011;8021;48.022;11.812;2023-04-01T06:58:37;0.10;;;0.10;;
15841;SDS011;8021;48.022;11.812;2023-04-01T07:01:07;0.10;;;0.10;;
15841;SDS011;8021;48.022;11.812;2023-04-01T07:03:38;0.10;;;0.10;;
15841;SDS011;8021;48.022;11.812;2023-04-01T07:06:08;0.10;;;0.10;;
15841;SDS011;8021;48.022;11.812;2023-04-01T07:08:46;0.10;;;0.10;;
15841;SDS011;8021;48.022;11.812;2023-04-01T07:11:15;0.10;;;0.10;;
15841;SDS011;8021;48.022;11.812;2023-04-01T07:14:24;0.10;;;0.10;;
15841;SDS011;8021;48.022;11.812;2023-04-01T07:16:54;0.10;;;0.10;;
15841;SDS011;8021;48.022;11.812;2023-04-01T07:19:29;0.10;;;0.10;;
15841;SDS011;8021;48.022;11.812;2023-04-01T07:22:05;0.10;;;0.10;;
15841;SDS011;8021;48.022;11.812;2023-04-01T07:24:53;0.10;;;0.10;;
15841;SDS011;8021;48.022;11.812;2023-04-01T07:27:22;0.20;;;0.20;;
15841;SDS011;8021;48.022;11.812;2023-04-01T07:29:50;0.20;;;0.20;;
15841;SDS011;8021;48.022;11.812;2023-04-01T07:32:20;0.30;;;0.20;;
15841;SDS011;8021;48.022;11.812;2023-04-01T07:35:00;0.30;;;0.20;;
15841;SDS011;8021;48.022;11.812;2023-04-01T07:37:31;0.30;;;0.20;;
15841;SDS011;8021;48.022;11.812;2023-04-01T07:40:06;0.30;;;0.20;;
15841;SDS011;8021;48.022;11.812;2023-04-01T07:42:39;0.30;;;0.22;;
15841;SDS011;8021;48.022;11.812;2023-04-01T07:45:09;0.30;;;0.20;;
15841;SDS011;8021;48.022;11.812;2023-04-01T07:47:49;0.30;;;0.20;;
15841;SDS011;8021;48.022;11.812;2023-04-01T07:50:21;0.30;;;0.30;;
15841;SDS011;8021;48.022;11.812;2023-04-01T07:52:50;0.20;;;0.20;;
15841;SDS011;8021;48.022;11.812;2023-04-01T07:55:24;0.30;;;0.22;;
15841;SDS011;8021;48.022;11.812;2023-04-01T07:57:57;0.20;;;0.20;;
15841;SDS011;8021;48.022;11.812;2023-04-01T08:00:33;0.20;;;0.15;;
15841;SDS011;8021;48.022;11.812;2023-04-01T08:03:28;0.20;;;0.10;;
15841;SDS011;8021;48.022;11.812;2023-04-01T08:06:02;0.20;;;0.20;;
15841;SDS011;8021;48.022;11.812;2023-04-01T08:08:36;0.20;;;0.20;;
15841;SDS011;8021;48.022;11.812;2023-04-01T08:11:34;0.20;;;0.20;;
15841;SDS011;8021;48.022;11.812;2023-04-01T08:14:43;0.20;;;0.10;;
15841;SDS011;8021;48.022;11.812;2023-04-01T08:17:39;0.20;;;0.15;;
15841;SDS011;8021;48.022;11.812;2023-04-01T08:20:18;0.20;;;0.20;;
15841;SDS011;8021;48.022;11.812;2023-04-01T08:22:53;0.20;;;0.20;;
15841;SDS011;8021;48.022;11.812;2023-04-01T08:25:30;0.30;;;0.20;;
15841;SDS011;8021;48.022;11.812;2023-04-01T08:27:59;0.20;;;0.20;;
15841;SDS011;8021;48.022;11.812;2023-04-01T08:30:31;0.20;;;0.13;;
15841;SDS011;8021;48.022;11.812;2023-04-01T08:33:03;0.20;;;0.20;;
15841;SDS011;8021;48.022;11.812;2023-04-01T08:35:34;0.20;;;0.20;;
15841;SDS011;8021;48.022;11.812;2023-04-01T08:38:09;0.20;;;0.20;;
15841;SDS011;8021;48.022;11.812;2023-04-01T08:40:43;0.20;;;0.20;;
15841;SDS011;8021;48.022;11.812;2023-04-01T08:43:20;0.20;;;0.20;;
15841;SDS011;8021;48.022;11.812;2023-04-01T08:54:14;0.10;;;0.10;;
15841;SDS011;8021;48.022;11.812;2023-04-01T08:56:50;0.10;;;0.10;;
15841;SDS011;8021;48.022;11.812;2023-04-01T08:59:27;0.10;;;0.10;;
15841;SDS011;8021;48.022;11.812;2023-04-01T09:02:00;0.10;;;0.10;;
15841;SDS011;8021;48.022;11.812;2023-04-01T09:07:36;0.10;;;0.10;;
15841;SDS011;8021;48.022;11.812;2023-04-01T09:10:14;0.10;;;0.10;;
15841;SDS011;8021;48.022;11.812;2023-04-01T09:12:58;0.10;;;0.10;;
15841;SDS011;8021;48.022;11.812;2023-04-01T09:15:33;0.10;;;0.10;;
15841;SDS011;8021;48.022;11.812;2023-04-01T09:18:09;0.10;;;0.10;;
15841;SDS011;8021;48.022;11.812;2023-04-01T09:20:54;0.10;;;0.10;;
15841;SDS011;8021;48.022;11.812;2023-04-01T09:23:29;0.20;;;0.20;;
15841;SDS011;8021;48.022;11.812;2023-04-01T09:26:06;0.10;;;0.10;;
15841;SDS011;8021;48.022;11.812;2023-04-01T09:28:38;0.20;;;0.20;;
15841;SDS011;8021;48.022;11.812;2023-04-01T09:31:15;0.13;;;0.10;;
15841;SDS011;8021;48.022;11.812;2023-04-01T09:34:30;0.20;;;0.17;;
15841;SDS011;8021;48.022;11.812;2023-04-01T09:39:47;0.20;;;0.20;;
15841;SDS011;8021;48.022;11.812;2023-04-01T09:42:26;0.20;;;0.20;;
15841;SDS011;8021;48.022;11.812;2023-04-01T09:45:15;0.20;;;0.17;;
15841;SDS011;8021;48.022;11.812;2023-04-01T09:47:50;0.30;;;0.30;;
15841;SDS011;8021;48.022;11.812;2023-04-01T09:50:30;0.20;;;0.20;;
15841;SDS011;8021;48.022;11.812;2023-04-01T09:53:04;0.20;;;0.13;;
15841;SDS011;8021;48.022;11.812;2023-04-01T09:58:25;0.20;;;0.15;;
15841;SDS011;8021;48.022;11.812;2023-04-01T10:04:14;0.20;;;0.20;;
15841;SDS011;8021;48.022;11.812;2023-04-01T10:06:54;0.20;;;0.20;;
15841;SDS011;8021;48.022;11.812;2023-04-01T10:12:17;0.20;;;0.20;;
15841;SDS011;8021;48.022;11.812;2023-04-01T10:17:40;0.20;;;0.20;;
15841;SDS011;8021;48.022;11.812;2023-04-01T10:20:18;0.20;;;0.20;;
15841;SDS011;8021;48.022;11.812;2023-04-01T10:29:07;0.20;;;0.20;;
15841;SDS011;8021;48.022;11.812;2023-04-01T10:37:17;0.30;;;0.20;;
15841;SDS011;8021;48.022;11.812;2023-04-01T10:40:13;0.20;;;0.20;;
15841;SDS011;8021;48.022;11.812;2023-04-01T10:48:58;0.20;;;0.20;;
15841;SDS011;8021;48.022;11.812;2023-04-01T10:54:32;0.30;;;0.20;;
15841;SDS011;8021;48.022;11.812;2023-04-01T10:57:28;0.20;;;0.20;;
15841;SDS011;8021;48.022;11.812;2023-04-01T11:10:17;0.30;;;0.30;;
15841;SDS011;8021;48.022;11.812;2023-04-01T11:13:14;0.20;;;0.20;;
15841;SDS011;8021;48.022;11.812;2023-04-01T11:16:06;0.20;;;0.20;;
15841;SDS011;8021;48.022;11.812;2023-04-01T11:21:34;0.30;;;0.20;;
15841;SDS011;8021;48.022;11.812;2023-04-01T11:24:18;0.30;;;0.30;;
15841;SDS011;8021;48.022;11.812;2023-04-01T11:27:09;0.30;;;0.20;;
15841;SDS011;8021;48.022;11.812;2023-04-01T11:29:50;0.30;;;0.30;;
15841;SDS011;8021;48.022;11.812;2023-04-01T11:32:34;0.20;;;0.20;;
15841;SDS011;8021;48.022;11.812;2023-04-01T11:35:32;0.30;;;0.20;;
15841;SDS011;8021;48.022;11.812;2023-04-01T11:38:06;0.30;;;0.22;;
15841;SDS011;8021;48.022;11.812;2023-04-01T11:40:59;0.30;;;0.30;;
15841;SDS011;8021;48.022;11.812;2023-04-01T11:43:53;0.25;;;0.20;;
15841;SDS011;8021;48.022;11.812;2023-04-01T11:46:44;0.40;;;0.40;;
15841;SDS011;8021;48.022;11.812;2023-04-01T11:49:24;0.30;;;0.30;;
15841;SDS011;8021;48.022;11.812;2023-04-01T11:52:11;0.20;;;0.20;;
15841;SDS011;8021;48.022;11.812;2023-04-01T11:54:46;0.30;;;0.22;;
15841;SDS011;8021;48.022;11.812;2023-04-01T11:57:25;0.30;;;0.30;;
15841;SDS011;8021;48.022;11.812;2023-04-01T12:00:00;0.30;;;0.30;;
15841;SDS011;8021;48.022;11.812;2023-04-01T12:02:29;0.35;;;0.35;;
15841;SDS011;8021;48.022;11.812;2023-04-01T12:05:07;0.30;;;0.30;;
15841;SDS011;8021;48.022;11.812;2023-04-01T12:07:44;0.30;;;0.25;;
15841;SDS011;8021;48.022;11.812;2023-04-01T12:10:15;0.30;;;0.30;;
15841;SDS011;8021;48.022;11.812;2023-04-01T12:12:46;0.30;;;0.30;;
15841;SDS011;8021;48.022;11.812;2023-04-01T12:15:30;0.30;;;0.30;;
15841;SDS011;8021;48.022;11.812;2023-04-01T12:18:05;0.35;;;0.35;;
15841;SDS011;8021;48.022;11.812;2023-04-01T12:20:41;0.30;;;0.30;;
15841;SDS011;8021;48.022;11.812;2023-04-01T12:26:00;0.20;;;0.20;;
15841;SDS011;8021;48.022;11.812;2023-04-01T12:28:36;0.30;;;0.30;;
15841;SDS011;8021;48.022;11.812;2023-04-01T12:31:15;0.30;;;0.30;;
15841;SDS011;8021;48.022;11.812;2023-04-01T12:33:53;0.30;;;0.30;;
15841;SDS011;8021;48.022;11.812;2023-04-01T12:36:37;0.22;;;0.20;;
15841;SDS011;8021;48.022;11.812;2023-04-01T12:41:52;0.40;;;0.40;;
15841;SDS011;8021;48.022;11.812;2023-04-01T12:44:29;0.40;;;0.40;;
15841;SDS011;8021;48.022;11.812;2023-04-01T12:49:59;0.30;;;0.30;;
15841;SDS011;8021;48.022;11.812;2023-04-01T12:52:36;0.30;;;0.30;;
15841;SDS011;8021;48.022;11.812;2023-04-01T12:55:15;0.40;;;0.40;;
15841;SDS011;8021;48.022;11.812;2023-04-01T13:00:42;0.30;;;0.30;;
15841;SDS011;8021;48.022;11.812;2023-04-01T13:03:15;0.40;;;0.40;;
15841;SDS011;8021;48.022;11.812;2023-04-01T13:08:34;0.40;;;0.40;;
15841;SDS011;8021;48.022;11.812;2023-04-01T13:11:08;0.35;;;0.35;;
15841;SDS011;8021;48.022;11.812;2023-04-01T13:16:22;0.30;;;0.30;;
15841;SDS011;8021;48.022;11.812;2023-04-01T13:18:54;0.30;;;0.30;;
15841;SDS011;8021;48.022;11.812;2023-04-01T13:21:25;0.45;;;0.45;;
15841;SDS011;8021;48.022;11.812;2023-04-01T13:23:58;0.30;;;0.30;;
15841;SDS011;8021;48.022;11.812;2023-04-01T13:26:31;0.40;;;0.40;;
15841;SDS011;8021;48.022;11.812;2023-04-01T13:29:04;0.30;;;0.20;;
15841;SDS011;8021;48.022;11.812;2023-04-01T13:31:38;0.30;;;0.30;;
15841;SDS011;8021;48.022;11.812;2023-04-01T13:34:13;0.30;;;0.30;;
15841;SDS011;8021;48.022;11.812;2023-04-01T13:36:46;0.40;;;0.40;;
15841;SDS011;8021;48.022;11.812;2023-04-01T13:39:24;0.30;;;0.30;;
15841;SDS011;8021;48.022;11.812;2023-04-01T13:41:58;0.30;;;0.30;;
15841;SDS011;8021;48.022;11.812;2023-04-01T13:44:29;0.40;;;0.40;;
15841;SDS011;8021;48.022;11.812;2023-04-01T13:49:50;0.40;;;0.40;;
15841;SDS011;8021;48.022;11.812;2023-04-01T13:52:29;0.30;;;0.30;;
15841;SDS011;8021;48.022;11.812;2023-04-01T13:58:04;0.40;;;0.40;;
15841;SDS011;8021;48.022;11.812;2023-04-01T14:00:38;0.30;;;0.30;;
15841;SDS011;8021;48.022;11.812;2023-04-01T14:03:14;0.30;;;0.30;;
15841;SDS011;8021;48.022;11.812;2023-04-01T14:05:47;0.30;;;0.30;;
15841;SDS011;8021;48.022;11.812;2023-04-01T14:08:19;0.30;;;0.30;;
15841;SDS011;8021;48.022;11.812;2023-04-01T14:10:49;0.40;;;0.40;;
15841;SDS011;8021;48.022;11.812;2023-04-01T14:13:26;0.40;;;0.40;;
15841;SDS011;8021;48.022;11.812;2023-04-01T14:16:14;0.30;;;0.30;;
15841;SDS011;8021;48.022;11.812;2023-04-01T14:18:53;0.47;;;0.47;;
15841;SDS011;8021;48.022;11.812;2023-04-01T14:21:28;0.40;;;0.40;;
15841;SDS011;8021;48.022;11.812;2023-04-01T14:24:00;0.22;;;0.22;;
15841;SDS011;8021;48.022;11.812;2023-04-01T14:29:23;0.40;;;0.40;;
15841;SDS011;8021;48.022;11.812;2023-04-01T14:31:54;0.30;;;0.30;;
15841;SDS011;8021;48.022;11.812;2023-04-01T14:34:29;0.40;;;0.40;;
15841;SDS011;8021;48.022;11.812;2023-04-01T14:37:04;0.50;;;0.50;;
15841;SDS011;8021;48.022;11.812;2023-04-01T14:42:38;0.30;;;0.30;;
15841;SDS011;8021;48.022;11.812;2023-04-01T14:45:26;0.40;;;0.40;;
15841;SDS011;8021;48.022;11.812;2023-04-01T14:47:58;0.30;;;0.30;;
15841;SDS011;8021;48.022;11.812;2023-04-01T14:50:27;0.30;;;0.30;;
15841;SDS011;8021;48.022;11.812;2023-04-01T14:52:58;0.40;;;0.40;;
15841;SDS011;8021;48.022;11.812;2023-04-01T14:55:31;0.30;;;0.30;;
15841;SDS011;8021;48.022;11.812;2023-04-01T14:58:04;0.38;;;0.38;;
15841;SDS011;8021;48.022;11.812;2023-04-01T15:00:44;0.40;;;0.40;;
15841;SDS011;8021;48.022;11.812;2023-04-01T15:03:14;0.30;;;0.30;;
15841;SDS011;8021;48.022;11.812;2023-04-01T15:05:47;0.38;;;0.38;;
15841;SDS011;8021;48.022;11.812;2023-04-01T15:08:17;0.50;;;0.50;;
15841;SDS011;8021;48.022;11.812;2023-04-01T15:10:53;0.30;;;0.30;;
15841;SDS011;8021;48.022;11.812;2023-04-01T15:13:30;0.30;;;0.30;;
15841;SDS011;8021;48.022;11.812;2023-04-01T15:16:08;0.30;;;0.30;;
15841;SDS011;8021;48.022;11.812;2023-04-01T15:18:40;0.30;;;0.30;;
15841;SDS011;8021;48.022;11.812;2023-04-01T15:21:18;0.35;;;0.35;;
15841;SDS011;8021;48.022;11.812;2023-04-01T15:23:51;0.30;;;0.30;;
15841;SDS011;8021;48.022;11.812;2023-04-01T15:26:26;0.30;;;0.30;;
15841;SDS011;8021;48.022;11.812;2023-04-01T15:28:59;0.30;;;0.30;;
15841;SDS011;8021;48.022;11.812;2023-04-01T15:31:31;0.40;;;0.40;;
15841;SDS011;8021;48.022;11.812;2023-04-01T15:34:06;0.30;;;0.30;;
15841;SDS011;8021;48.022;11.812;2023-04-01T15:36:38;0.30;;;0.30;;
15841;SDS011;8021;48.022;11.812;2023-04-01T15:39:10;0.40;;;0.40;;
15841;SDS011;8021;48.022;11.812;2023-04-01T15:41:40;0.30;;;0.30;;
15841;SDS011;8021;48.022;11.812;2023-04-01T15:46:53;0.30;;;0.30;;
15841;SDS011;8021;48.022;11.812;2023-04-01T15:49:27;0.30;;;0.30;;
15841;SDS011;8021;48.022;11.812;2023-04-01T15:51:59;0.32;;;0.32;;
15841;SDS011;8021;48.022;11.812;2023-04-01T15:54:32;0.40;;;0.40;;
15841;SDS011;8021;48.022;11.812;2023-04-01T15:57:08;0.30;;;0.30;;
15841;SDS011;8021;48.022;11.812;2023-04-01T15:59:44;0.40;;;0.40;;
15841;SDS011;8021;48.022;11.812;2023-04-01T16:02:18;0.32;;;0.32;;
15841;SDS011;8021;48.022;11.812;2023-04-01T16:04:47;0.32;;;0.32;;
15841;SDS011;8021;48.022;11.812;2023-04-01T16:07:30;0.30;;;0.30;;
15841;SDS011;8021;48.022;11.812;2023-04-01T16:10:09;0.30;;;0.30;;
15841;SDS011;8021;48.022;11.812;2023-04-01T16:12:44;0.40;;;0.40;;
15841;SDS011;8021;48.022;11.812;2023-04-01T16:15:18;0.30;;;0.30;;
15841;SDS011;8021;48.022;11.812;2023-04-01T16:20:39;0.40;;;0.40;;
15841;SDS011;8021;48.022;11.812;2023-04-01T16:23:10;0.30;;;0.30;;
15841;SDS011;8021;48.022;11.812;2023-04-01T16:25:41;0.32;;;0.32;;
15841;SDS011;8021;48.022;11.812;2023-04-01T16:28:15;0.30;;;0.30;;
15841;SDS011;8021;48.022;11.812;2023-04-01T16:30:46;0.38;;;0.38;;
15841;SDS011;8021;48.022;11.812;2023-04-01T16:33:17;0.30;;;0.30;;
15841;SDS011;8021;48.022;11.812;2023-04-01T16:35:52;0.30;;;0.30;;
15841;SDS011;8021;48.022;11.812;2023-04-01T16:38:22;0.38;;;0.38;;
15841;SDS011;8021;48.022;11.812;2023-04-01T16:40:57;0.47;;;0.47;;
15841;SDS011;8021;48.022;11.812;2023-04-01T16:43:28;0.40;;;0.40;;
15841;SDS011;8021;48.022;11.812;2023-04-01T16:46:11;0.30;;;0.30;;
15841;SDS011;8021;48.022;11.812;2023-04-01T16:48:45;0.40;;;0.40;;
15841;SDS011;8021;48.022;11.812;2023-04-01T16:51:18;0.30;;;0.30;;
15841;SDS011;8021;48.022;11.812;2023-04-01T16:53:47;0.30;;;0.30;;
15841;SDS011;8021;48.022;11.812;2023-04-01T16:56:16;0.40;;;0.40;;
15841;SDS011;8021;48.022;11.812;2023-04-01T16:58:56;0.30;;;0.30;;
15841;SDS011;8021;48.022;11.812;2023-04-01T17:01:26;0.30;;;0.30;;
15841;SDS011;8021;48.022;11.812;2023-04-01T17:03:57;0.35;;;0.35;;